This is the latest recevied weather packets stored in our database for station/object K0SDS. If no packets are shown the sender has not sent any weather packets the latest 10 day(s).
| Time | Temp. | Humidity | Pressure | Rain* | Wind** | Luminosity | Snow |
|---|---|---|---|---|---|---|---|
| 1778110763 | 16.67° C | 35% | 1016.8 hPa | 0 mm | - | 139 W/m² | - |
| 1778110459 | 16.11° C | 36% | 1016.7 hPa | 0 mm | - | 153 W/m² | - |
| 1778110156 | 16.11° C | 34% | 1016.7 hPa | 0 mm | - | 161 W/m² | - |
| 1778109852 | 16.67° C | 33% | 1016.7 hPa | 0 mm | - | 180 W/m² | - |
| 1778109548 | 16.67° C | 33% | 1016.8 hPa | 0 mm | - | 181 W/m² | - |
| 1778109246 | 16.67° C | 33% | 1016.8 hPa | 0 mm | - | 184 W/m² | - |
| 1778108943 | 16.67° C | 34% | 1016.9 hPa | 0 mm | - | 199 W/m² | - |
| 1778108640 | 16.67° C | 35% | 1017.1 hPa | 0 mm | - | 206 W/m² | - |
| 1778108335 | 16.67° C | 36% | 1017 hPa | 0 mm | - | 219 W/m² | - |
| 1778108033 | 16.67° C | 38% | 1017 hPa | 0 mm | - | 239 W/m² | - |
| 1778107730 | 16.11° C | 39% | 1016.8 hPa | 0 mm | - | 266 W/m² | - |
| 1778107428 | 16.67° C | 35% | 1017.1 hPa | 0 mm | - | 289 W/m² | - |
| 1778107124 | 16.67° C | 35% | 1016.8 hPa | 0 mm | - | 292 W/m² | - |
| 1778106819 | 16.67° C | 35% | 1016.8 hPa | 0 mm | - | 296 W/m² | - |
| 1778106516 | 17.22° C | 35% | 1017.1 hPa | 0 mm | - | 309 W/m² | - |
| 1778106212 | 16.67° C | 37% | 1017 hPa | 0 mm | - | 313 W/m² | - |
| 1778105905 | 17.22° C | 39% | 1017.1 hPa | 0 mm | - | 343 W/m² | - |
| 1778105602 | 16.67° C | 39% | 1016.9 hPa | 0 mm | - | 373 W/m² | - |
| 1778105299 | 16.67° C | 40% | 1017.2 hPa | 0 mm | - | 364 W/m² | - |
| 1778104994 | 17.22° C | 39% | 1017 hPa | 0 mm | - | 234 W/m² | - |
| 1778104691 | 17.78° C | 35% | 1017.1 hPa | 0 mm | - | 353 W/m² | - |
| 1778104387 | 17.22° C | 38% | 1017.2 hPa | 0 mm | - | 399 W/m² | - |
| 1778104083 | 17.78° C | 37% | 1017.2 hPa | 0 mm | - | 445 W/m² | - |
| 1778103780 | 16.67° C | 37% | 1017 hPa | 0 mm | - | 489 W/m² | - |
| 1778103479 | 17.22° C | 34% | 1017.5 hPa | 0 mm | - | 477 W/m² | - |
* Rain latest hour (hover to see other rain measurements)
** Current wind speed in m/s (hover to see current wind gust speed)